sensor_id;sensor_type;location;lat;lon;timestamp;temperature;humidity
37910;DHT22;23741;49.446;8.754;2022-09-09T00:00:31;20.20;63.10
37910;DHT22;23741;49.446;8.754;2022-09-09T00:02:34;20.30;63.10
37910;DHT22;23741;49.446;8.754;2022-09-09T00:04:36;20.20;63.40
37910;DHT22;23741;49.446;8.754;2022-09-09T00:06:55;20.20;63.20
37910;DHT22;23741;49.446;8.754;2022-09-09T00:11:01;20.20;63.10
37910;DHT22;23741;49.446;8.754;2022-09-09T00:13:13;20.30;63.60
37910;DHT22;23741;49.446;8.754;2022-09-09T00:15:19;20.20;63.10
37910;DHT22;23741;49.446;8.754;2022-09-09T00:19:44;20.20;63.50
37910;DHT22;23741;49.446;8.754;2022-09-09T00:22:07;20.20;63.50
37910;DHT22;23741;49.446;8.754;2022-09-09T00:25:01;20.20;63.50
37910;DHT22;23741;49.446;8.754;2022-09-09T00:26:41;20.20;63.50
37910;DHT22;23741;49.446;8.754;2022-09-09T00:28:55;20.20;63.40
37910;DHT22;23741;49.446;8.754;2022-09-09T00:31:04;20.20;63.70
37910;DHT22;23741;49.446;8.754;2022-09-09T00:33:11;20.30;63.70
37910;DHT22;23741;49.446;8.754;2022-09-09T00:35:18;20.20;63.60
37910;DHT22;23741;49.446;8.754;2022-09-09T00:37:20;20.20;63.70
37910;DHT22;23741;49.446;8.754;2022-09-09T00:39:41;20.20;64.00
37910;DHT22;23741;49.446;8.754;2022-09-09T00:41:48;20.20;64.00
37910;DHT22;23741;49.446;8.754;2022-09-09T00:48:29;20.20;63.90
37910;DHT22;23741;49.446;8.754;2022-09-09T00:50:48;20.20;64.00
37910;DHT22;23741;49.446;8.754;2022-09-09T00:53:09;20.20;63.60
37910;DHT22;23741;49.446;8.754;2022-09-09T00:57:31;20.20;63.80
37910;DHT22;23741;49.446;8.754;2022-09-09T00:59:38;20.30;64.10
37910;DHT22;23741;49.446;8.754;2022-09-09T01:01:43;20.20;64.10
37910;DHT22;23741;49.446;8.754;2022-09-09T01:05:50;20.20;64.20
37910;DHT22;23741;49.446;8.754;2022-09-09T01:07:53;20.20;64.70
37910;DHT22;23741;49.446;8.754;2022-09-09T01:09:59;20.20;64.70
37910;DHT22;23741;49.446;8.754;2022-09-09T01:12:09;20.20;64.20
37910;DHT22;23741;49.446;8.754;2022-09-09T01:16:29;20.20;64.60
37910;DHT22;23741;49.446;8.754;2022-09-09T01:18:43;20.20;64.70
37910;DHT22;23741;49.446;8.754;2022-09-09T01:20:48;20.30;64.60
37910;DHT22;23741;49.446;8.754;2022-09-09T01:27:59;20.30;64.40
37910;DHT22;23741;49.446;8.754;2022-09-09T01:30:04;20.30;64.40
37910;DHT22;23741;49.446;8.754;2022-09-09T01:34:31;20.30;64.60
37910;DHT22;23741;49.446;8.754;2022-09-09T01:36:36;20.40;64.30
37910;DHT22;23741;49.446;8.754;2022-09-09T01:38:39;20.40;65.20
37910;DHT22;23741;49.446;8.754;2022-09-09T01:40:41;20.40;64.20
37910;DHT22;23741;49.446;8.754;2022-09-09T01:42:43;20.40;64.50
37910;DHT22;23741;49.446;8.754;2022-09-09T01:44:45;20.40;64.40
37910;DHT22;23741;49.446;8.754;2022-09-09T01:46:47;20.40;64.10
37910;DHT22;23741;49.446;8.754;2022-09-09T01:48:53;20.40;64.20
37910;DHT22;23741;49.446;8.754;2022-09-09T01:50:56;20.30;64.20
37910;DHT22;23741;49.446;8.754;2022-09-09T01:52:58;20.30;64.30
37910;DHT22;23741;49.446;8.754;2022-09-09T01:55:04;20.30;64.20
37910;DHT22;23741;49.446;8.754;2022-09-09T01:59:18;20.30;64.50
37910;DHT22;23741;49.446;8.754;2022-09-09T02:03:31;20.30;64.80
37910;DHT22;23741;49.446;8.754;2022-09-09T02:06:27;20.30;64.60
37910;DHT22;23741;49.446;8.754;2022-09-09T02:08:17;20.30;64.70
37910;DHT22;23741;49.446;8.754;2022-09-09T02:10:30;20.30;64.60
37910;DHT22;23741;49.446;8.754;2022-09-09T02:12:46;20.30;64.30
37910;DHT22;23741;49.446;8.754;2022-09-09T02:14:50;20.30;64.30
37910;DHT22;23741;49.446;8.754;2022-09-09T02:16:59;20.30;64.30
37910;DHT22;23741;49.446;8.754;2022-09-09T02:19:24;20.30;64.60
37910;DHT22;23741;49.446;8.754;2022-09-09T02:21:36;20.30;64.30
37910;DHT22;23741;49.446;8.754;2022-09-09T02:23:38;20.30;64.10
37910;DHT22;23741;49.446;8.754;2022-09-09T02:25:43;20.30;63.90
37910;DHT22;23741;49.446;8.754;2022-09-09T02:27:54;20.30;64.00
37910;DHT22;23741;49.446;8.754;2022-09-09T02:29:56;20.30;64.30
37910;DHT22;23741;49.446;8.754;2022-09-09T02:32:17;20.30;64.20
37910;DHT22;23741;49.446;8.754;2022-09-09T02:34:19;20.30;64.00
37910;DHT22;23741;49.446;8.754;2022-09-09T02:36:22;20.30;63.60
37910;DHT22;23741;49.446;8.754;2022-09-09T02:38:25;20.30;63.60
37910;DHT22;23741;49.446;8.754;2022-09-09T02:40:34;20.30;63.90
37910;DHT22;23741;49.446;8.754;2022-09-09T02:42:38;20.30;64.00
37910;DHT22;23741;49.446;8.754;2022-09-09T02:44:40;20.30;63.80
37910;DHT22;23741;49.446;8.754;2022-09-09T02:47:03;20.30;63.30
37910;DHT22;23741;49.446;8.754;2022-09-09T02:51:53;20.30;63.50
37910;DHT22;23741;49.446;8.754;2022-09-09T02:54:02;20.30;63.40
37910;DHT22;23741;49.446;8.754;2022-09-09T02:56:08;20.20;62.90
37910;DHT22;23741;49.446;8.754;2022-09-09T02:58:15;20.20;63.40
37910;DHT22;23741;49.446;8.754;2022-09-09T03:00:31;20.20;63.30
37910;DHT22;23741;49.446;8.754;2022-09-09T03:02:36;20.20;63.00
37910;DHT22;23741;49.446;8.754;2022-09-09T03:04:40;20.20;63.10
37910;DHT22;23741;49.446;8.754;2022-09-09T03:06:44;20.30;63.30
37910;DHT22;23741;49.446;8.754;2022-09-09T03:08:53;20.20;63.40
37910;DHT22;23741;49.446;8.754;2022-09-09T03:10:59;20.30;63.60
37910;DHT22;23741;49.446;8.754;2022-09-09T03:13:05;20.20;63.50
37910;DHT22;23741;49.446;8.754;2022-09-09T03:15:10;20.20;63.20
37910;DHT22;23741;49.446;8.754;2022-09-09T03:17:13;20.20;63.30
37910;DHT22;23741;49.446;8.754;2022-09-09T03:19:22;20.20;63.30
37910;DHT22;23741;49.446;8.754;2022-09-09T03:21:25;20.20;63.40
37910;DHT22;23741;49.446;8.754;2022-09-09T03:23:28;20.20;63.60
37910;DHT22;23741;49.446;8.754;2022-09-09T03:25:32;20.30;63.70
37910;DHT22;23741;49.446;8.754;2022-09-09T03:27:35;20.30;64.10
37910;DHT22;23741;49.446;8.754;2022-09-09T03:29:37;20.10;64.20
37910;DHT22;23741;49.446;8.754;2022-09-09T03:31:42;20.20;64.20
37910;DHT22;23741;49.446;8.754;2022-09-09T03:33:44;20.30;64.40
37910;DHT22;23741;49.446;8.754;2022-09-09T03:35:48;20.20;64.40
37910;DHT22;23741;49.446;8.754;2022-09-09T03:37:52;20.20;64.10
37910;DHT22;23741;49.446;8.754;2022-09-09T03:39:53;20.20;64.20
37910;DHT22;23741;49.446;8.754;2022-09-09T03:41:58;20.20;64.40
37910;DHT22;23741;49.446;8.754;2022-09-09T03:44:00;20.20;64.40
37910;DHT22;23741;49.446;8.754;2022-09-09T03:46:04;20.20;64.20
37910;DHT22;23741;49.446;8.754;2022-09-09T03:48:06;20.20;64.30
37910;DHT22;23741;49.446;8.754;2022-09-09T03:50:08;20.20;64.60
37910;DHT22;23741;49.446;8.754;2022-09-09T03:52:16;20.20;64.50
37910;DHT22;23741;49.446;8.754;2022-09-09T03:54:24;20.20;64.60
37910;DHT22;23741;49.446;8.754;2022-09-09T03:56:26;20.20;64.50
37910;DHT22;23741;49.446;8.754;2022-09-09T03:58:28;20.20;64.50
37910;DHT22;23741;49.446;8.754;2022-09-09T04:00:40;20.20;64.30
37910;DHT22;23741;49.446;8.754;2022-09-09T04:02:44;20.20;64.10
37910;DHT22;23741;49.446;8.754;2022-09-09T04:04:48;20.20;64.10
37910;DHT22;23741;49.446;8.754;2022-09-09T04:06:51;20.10;64.30
37910;DHT22;23741;49.446;8.754;2022-09-09T04:08:53;20.10;64.40
37910;DHT22;23741;49.446;8.754;2022-09-09T04:10:55;20.10;64.40
37910;DHT22;23741;49.446;8.754;2022-09-09T04:13:01;20.10;64.40
37910;DHT22;23741;49.446;8.754;2022-09-09T04:15:03;20.10;64.40
37910;DHT22;23741;49.446;8.754;2022-09-09T04:17:06;20.10;64.20
37910;DHT22;23741;49.446;8.754;2022-09-09T04:19:07;20.10;64.30
37910;DHT22;23741;49.446;8.754;2022-09-09T04:21:10;20.10;64.20
37910;DHT22;23741;49.446;8.754;2022-09-09T04:23:11;20.10;64.40
37910;DHT22;23741;49.446;8.754;2022-09-09T04:25:13;20.10;64.40
37910;DHT22;23741;49.446;8.754;2022-09-09T04:27:15;20.00;63.90
37910;DHT22;23741;49.446;8.754;2022-09-09T04:29:17;20.10;63.80
37910;DHT22;23741;49.446;8.754;2022-09-09T04:31:19;20.10;63.50
37910;DHT22;23741;49.446;8.754;2022-09-09T04:33:24;20.00;63.30
37910;DHT22;23741;49.446;8.754;2022-09-09T04:35:28;20.00;63.40
37910;DHT22;23741;49.446;8.754;2022-09-09T04:37:30;20.00;63.20
37910;DHT22;23741;49.446;8.754;2022-09-09T04:39:32;20.00;63.30
37910;DHT22;23741;49.446;8.754;2022-09-09T04:41:35;20.00;63.40
37910;DHT22;23741;49.446;8.754;2022-09-09T04:43:37;20.00;63.70
37910;DHT22;23741;49.446;8.754;2022-09-09T04:45:41;20.00;63.70
37910;DHT22;23741;49.446;8.754;2022-09-09T04:47:43;20.00;63.40
37910;DHT22;23741;49.446;8.754;2022-09-09T04:49:45;20.00;63.30
37910;DHT22;23741;49.446;8.754;2022-09-09T04:51:48;20.00;63.10
37910;DHT22;23741;49.446;8.754;2022-09-09T04:53:51;20.00;63.00
37910;DHT22;23741;49.446;8.754;2022-09-09T04:56:02;20.00;62.90
37910;DHT22;23741;49.446;8.754;2022-09-09T04:58:07;20.00;63.00
37910;DHT22;23741;49.446;8.754;2022-09-09T05:00:09;20.10;63.10
37910;DHT22;23741;49.446;8.754;2022-09-09T05:02:14;20.10;63.20
37910;DHT22;23741;49.446;8.754;2022-09-09T05:04:16;20.00;63.00
37910;DHT22;23741;49.446;8.754;2022-09-09T05:06:18;20.10;63.00
37910;DHT22;23741;49.446;8.754;2022-09-09T05:08:22;20.10;63.00
37910;DHT22;23741;49.446;8.754;2022-09-09T05:10:24;20.00;63.10
37910;DHT22;23741;49.446;8.754;2022-09-09T05:12:25;20.00;63.00
37910;DHT22;23741;49.446;8.754;2022-09-09T05:14:27;20.00;63.90
37910;DHT22;23741;49.446;8.754;2022-09-09T05:16:29;20.00;63.20
37910;DHT22;23741;49.446;8.754;2022-09-09T05:18:31;20.00;63.30
37910;DHT22;23741;49.446;8.754;2022-09-09T05:20:33;20.00;63.30
37910;DHT22;23741;49.446;8.754;2022-09-09T05:22:36;20.00;63.30
37910;DHT22;23741;49.446;8.754;2022-09-09T05:24:37;20.10;63.40
37910;DHT22;23741;49.446;8.754;2022-09-09T05:26:39;20.00;63.20
37910;DHT22;23741;49.446;8.754;2022-09-09T05:28:41;20.00;63.10
37910;DHT22;23741;49.446;8.754;2022-09-09T05:30:43;20.00;62.80
37910;DHT22;23741;49.446;8.754;2022-09-09T05:32:45;20.00;62.90
37910;DHT22;23741;49.446;8.754;2022-09-09T05:34:47;20.00;62.80
37910;DHT22;23741;49.446;8.754;2022-09-09T05:36:49;20.00;63.10
37910;DHT22;23741;49.446;8.754;2022-09-09T05:38:50;20.00;63.20
37910;DHT22;23741;49.446;8.754;2022-09-09T05:40:55;20.00;63.20
37910;DHT22;23741;49.446;8.754;2022-09-09T05:42:59;20.10;63.10
37910;DHT22;23741;49.446;8.754;2022-09-09T05:45:01;20.20;63.20
37910;DHT22;23741;49.446;8.754;2022-09-09T05:47:03;20.10;63.10
37910;DHT22;23741;49.446;8.754;2022-09-09T05:49:04;20.10;63.40
37910;DHT22;23741;49.446;8.754;2022-09-09T05:51:09;20.10;63.30
37910;DHT22;23741;49.446;8.754;2022-09-09T05:53:13;20.10;63.30
37910;DHT22;23741;49.446;8.754;2022-09-09T05:55:15;20.10;63.50
37910;DHT22;23741;49.446;8.754;2022-09-09T05:57:17;20.10;63.20
37910;DHT22;23741;49.446;8.754;2022-09-09T05:59:20;20.10;63.20
37910;DHT22;23741;49.446;8.754;2022-09-09T06:01:25;20.10;62.90
37910;DHT22;23741;49.446;8.754;2022-09-09T06:03:28;20.20;63.20
37910;DHT22;23741;49.446;8.754;2022-09-09T06:05:30;20.20;63.10
37910;DHT22;23741;49.446;8.754;2022-09-09T06:07:32;20.20;63.50
37910;DHT22;23741;49.446;8.754;2022-09-09T06:09:34;20.20;63.50
37910;DHT22;23741;49.446;8.754;2022-09-09T06:11:37;20.20;63.70
37910;DHT22;23741;49.446;8.754;2022-09-09T06:13:39;20.20;63.70
37910;DHT22;23741;49.446;8.754;2022-09-09T06:15:49;20.20;63.50
37910;DHT22;23741;49.446;8.754;2022-09-09T06:17:54;20.20;64.20
37910;DHT22;23741;49.446;8.754;2022-09-09T06:19:57;20.30;63.40
37910;DHT22;23741;49.446;8.754;2022-09-09T06:21:58;20.30;63.30
37910;DHT22;23741;49.446;8.754;2022-09-09T06:24:02;20.30;63.10
37910;DHT22;23741;49.446;8.754;2022-09-09T06:26:06;20.30;63.20
37910;DHT22;23741;49.446;8.754;2022-09-09T06:28:08;20.40;63.30
37910;DHT22;23741;49.446;8.754;2022-09-09T06:30:10;20.30;63.10
37910;DHT22;23741;49.446;8.754;2022-09-09T06:32:12;20.40;63.30
37910;DHT22;23741;49.446;8.754;2022-09-09T06:34:14;20.40;63.50
37910;DHT22;23741;49.446;8.754;2022-09-09T06:36:21;20.40;63.70
37910;DHT22;23741;49.446;8.754;2022-09-09T06:38:23;20.40;63.50
37910;DHT22;23741;49.446;8.754;2022-09-09T06:40:25;20.40;63.40
37910;DHT22;23741;49.446;8.754;2022-09-09T06:42:27;20.50;63.50
37910;DHT22;23741;49.446;8.754;2022-09-09T06:44:38;20.50;63.40
37910;DHT22;23741;49.446;8.754;2022-09-09T06:46:43;20.50;63.30
37910;DHT22;23741;49.446;8.754;2022-09-09T06:48:45;20.50;63.30
37910;DHT22;23741;49.446;8.754;2022-09-09T06:50:49;20.50;63.30
37910;DHT22;23741;49.446;8.754;2022-09-09T06:52:52;20.50;63.60
37910;DHT22;23741;49.446;8.754;2022-09-09T06:54:54;20.50;63.50
37910;DHT22;23741;49.446;8.754;2022-09-09T06:56:56;20.50;63.40
37910;DHT22;23741;49.446;8.754;2022-09-09T06:59:00;20.60;63.30
37910;DHT22;23741;49.446;8.754;2022-09-09T07:01:06;20.60;63.20
37910;DHT22;23741;49.446;8.754;2022-09-09T07:03:09;20.60;63.30
37910;DHT22;23741;49.446;8.754;2022-09-09T07:05:11;20.60;63.20
37910;DHT22;23741;49.446;8.754;2022-09-09T07:07:15;20.60;63.00
37910;DHT22;23741;49.446;8.754;2022-09-09T07:09:17;20.70;63.10
37910;DHT22;23741;49.446;8.754;2022-09-09T07:11:22;20.60;62.80
37910;DHT22;23741;49.446;8.754;2022-09-09T07:13:25;20.60;63.00
37910;DHT22;23741;49.446;8.754;2022-09-09T07:15:28;20.70;63.00
37910;DHT22;23741;49.446;8.754;2022-09-09T07:17:29;20.60;63.20
37910;DHT22;23741;49.446;8.754;2022-09-09T07:19:33;20.70;63.40
37910;DHT22;23741;49.446;8.754;2022-09-09T07:21:36;20.70;63.30
37910;DHT22;23741;49.446;8.754;2022-09-09T07:23:38;20.70;63.20
37910;DHT22;23741;49.446;8.754;2022-09-09T07:25:44;20.70;63.10
37910;DHT22;23741;49.446;8.754;2022-09-09T07:27:47;20.70;63.10
37910;DHT22;23741;49.446;8.754;2022-09-09T07:29:48;20.70;63.30
37910;DHT22;23741;49.446;8.754;2022-09-09T07:31:50;20.80;63.40
37910;DHT22;23741;49.446;8.754;2022-09-09T07:33:57;20.80;63.10
37910;DHT22;23741;49.446;8.754;2022-09-09T07:36:03;20.80;63.20
37910;DHT22;23741;49.446;8.754;2022-09-09T07:38:05;20.80;63.20
37910;DHT22;23741;49.446;8.754;2022-09-09T07:40:08;20.80;63.20
37910;DHT22;23741;49.446;8.754;2022-09-09T07:42:10;20.90;63.20
37910;DHT22;23741;49.446;8.754;2022-09-09T07:44:16;20.90;63.40
37910;DHT22;23741;49.446;8.754;2022-09-09T07:46:22;20.90;63.50
37910;DHT22;23741;49.446;8.754;2022-09-09T07:48:24;20.90;63.70
37910;DHT22;23741;49.446;8.754;2022-09-09T07:50:26;21.00;63.60
37910;DHT22;23741;49.446;8.754;2022-09-09T07:52:28;21.00;63.50
37910;DHT22;23741;49.446;8.754;2022-09-09T07:54:34;21.10;63.90
37910;DHT22;23741;49.446;8.754;2022-09-09T07:56:39;21.00;64.00
37910;DHT22;23741;49.446;8.754;2022-09-09T07:58:42;21.10;64.00
37910;DHT22;23741;49.446;8.754;2022-09-09T08:00:44;21.10;63.90
37910;DHT22;23741;49.446;8.754;2022-09-09T08:02:46;21.10;63.50
37910;DHT22;23741;49.446;8.754;2022-09-09T08:04:48;21.20;63.40
37910;DHT22;23741;49.446;8.754;2022-09-09T08:06:54;21.20;63.40
37910;DHT22;23741;49.446;8.754;2022-09-09T08:08:59;21.20;63.60
37910;DHT22;23741;49.446;8.754;2022-09-09T08:11:03;21.30;63.90
37910;DHT22;23741;49.446;8.754;2022-09-09T08:13:08;21.30;63.50
37910;DHT22;23741;49.446;8.754;2022-09-09T08:15:19;21.30;63.30
37910;DHT22;23741;49.446;8.754;2022-09-09T08:17:20;21.40;63.20
37910;DHT22;23741;49.446;8.754;2022-09-09T08:19:23;21.40;63.10
37910;DHT22;23741;49.446;8.754;2022-09-09T08:21:27;21.40;64.00
37910;DHT22;23741;49.446;8.754;2022-09-09T08:23:31;21.40;63.00
37910;DHT22;23741;49.446;8.754;2022-09-09T08:25:32;21.40;62.90
37910;DHT22;23741;49.446;8.754;2022-09-09T08:27:35;21.40;62.90
37910;DHT22;23741;49.446;8.754;2022-09-09T08:29:38;21.40;62.90
37910;DHT22;23741;49.446;8.754;2022-09-09T08:31:45;21.50;62.90
37910;DHT22;23741;49.446;8.754;2022-09-09T08:33:48;21.50;62.80
37910;DHT22;23741;49.446;8.754;2022-09-09T08:35:54;21.50;62.70
37910;DHT22;23741;49.446;8.754;2022-09-09T08:37:57;21.50;62.60
37910;DHT22;23741;49.446;8.754;2022-09-09T08:39:59;21.60;62.50
37910;DHT22;23741;49.446;8.754;2022-09-09T08:44:14;21.60;62.30
37910;DHT22;23741;49.446;8.754;2022-09-09T08:46:24;21.60;62.30
37910;DHT22;23741;49.446;8.754;2022-09-09T08:50:36;21.60;62.20
37910;DHT22;23741;49.446;8.754;2022-09-09T08:53:02;21.60;62.10
37910;DHT22;23741;49.446;8.754;2022-09-09T08:55:20;21.60;62.10
37910;DHT22;23741;49.446;8.754;2022-09-09T08:57:24;21.60;62.10
37910;DHT22;23741;49.446;8.754;2022-09-09T08:59:29;21.60;62.10
37910;DHT22;23741;49.446;8.754;2022-09-09T09:07:01;21.60;62.90
37910;DHT22;23741;49.446;8.754;2022-09-09T09:08:43;21.60;62.30
37910;DHT22;23741;49.446;8.754;2022-09-09T09:10:49;21.60;62.20
37910;DHT22;23741;49.446;8.754;2022-09-09T09:12:55;21.60;62.20
37910;DHT22;23741;49.446;8.754;2022-09-09T09:14:58;21.60;62.20
37910;DHT22;23741;49.446;8.754;2022-09-09T09:17:02;21.60;62.00
37910;DHT22;23741;49.446;8.754;2022-09-09T09:19:05;21.60;62.10
37910;DHT22;23741;49.446;8.754;2022-09-09T09:21:13;21.60;62.10
37910;DHT22;23741;49.446;8.754;2022-09-09T09:23:28;21.60;62.00
37910;DHT22;23741;49.446;8.754;2022-09-09T09:25:35;21.60;61.90
37910;DHT22;23741;49.446;8.754;2022-09-09T09:30:15;21.60;61.70
37910;DHT22;23741;49.446;8.754;2022-09-09T09:33:02;21.60;61.60
37910;DHT22;23741;49.446;8.754;2022-09-09T09:35:10;21.60;61.70
37910;DHT22;23741;49.446;8.754;2022-09-09T09:37:40;21.60;61.70
37910;DHT22;23741;49.446;8.754;2022-09-09T09:40:27;21.70;61.80
37910;DHT22;23741;49.446;8.754;2022-09-09T09:42:31;21.70;61.80
37910;DHT22;23741;49.446;8.754;2022-09-09T09:44:34;21.70;61.80
37910;DHT22;23741;49.446;8.754;2022-09-09T09:46:45;21.70;61.70
37910;DHT22;23741;49.446;8.754;2022-09-09T09:49:01;21.80;61.50
37910;DHT22;23741;49.446;8.754;2022-09-09T09:51:08;21.80;61.80
37910;DHT22;23741;49.446;8.754;2022-09-09T09:53:20;21.90;61.80
37910;DHT22;23741;49.446;8.754;2022-09-09T09:55:23;21.80;61.70
37910;DHT22;23741;49.446;8.754;2022-09-09T10:00:28;21.90;61.70
37910;DHT22;23741;49.446;8.754;2022-09-09T10:02:38;22.00;61.30
37910;DHT22;23741;49.446;8.754;2022-09-09T10:04:43;22.00;61.50
37910;DHT22;23741;49.446;8.754;2022-09-09T10:06:46;22.00;61.50
37910;DHT22;23741;49.446;8.754;2022-09-09T10:08:48;22.10;61.60
37910;DHT22;23741;49.446;8.754;2022-09-09T10:11:10;22.10;61.50
37910;DHT22;23741;49.446;8.754;2022-09-09T10:15:48;22.20;61.40
37910;DHT22;23741;49.446;8.754;2022-09-09T10:20:19;22.20;61.00
37910;DHT22;23741;49.446;8.754;2022-09-09T10:22:33;22.20;60.90
37910;DHT22;23741;49.446;8.754;2022-09-09T10:26:58;22.30;60.90
37910;DHT22;23741;49.446;8.754;2022-09-09T10:31:21;22.30;61.00
37910;DHT22;23741;49.446;8.754;2022-09-09T10:33:28;22.30;61.00
37910;DHT22;23741;49.446;8.754;2022-09-09T10:35:34;22.40;61.10
37910;DHT22;23741;49.446;8.754;2022-09-09T10:37:45;22.40;61.10
37910;DHT22;23741;49.446;8.754;2022-09-09T10:39:53;22.40;61.20
37910;DHT22;23741;49.446;8.754;2022-09-09T10:42:06;22.40;61.30
37910;DHT22;23741;49.446;8.754;2022-09-09T10:44:28;22.50;61.20
37910;DHT22;23741;49.446;8.754;2022-09-09T10:55:37;22.90;61.30
37910;DHT22;23741;49.446;8.754;2022-09-09T10:57:41;23.00;61.10
37910;DHT22;23741;49.446;8.754;2022-09-09T10:59:47;23.00;61.30
37910;DHT22;23741;49.446;8.754;2022-09-09T11:03:56;23.20;61.20
37910;DHT22;23741;49.446;8.754;2022-09-09T11:06:04;23.30;61.00
37910;DHT22;23741;49.446;8.754;2022-09-09T11:08:09;23.40;60.40
37910;DHT22;23741;49.446;8.754;2022-09-09T11:10:16;23.50;60.20
37910;DHT22;23741;49.446;8.754;2022-09-09T11:12:20;23.60;60.60
37910;DHT22;23741;49.446;8.754;2022-09-09T11:14:41;23.70;60.10
37910;DHT22;23741;49.446;8.754;2022-09-09T11:16:51;23.70;60.40
37910;DHT22;23741;49.446;8.754;2022-09-09T11:19:01;23.80;60.60
37910;DHT22;23741;49.446;8.754;2022-09-09T11:21:04;23.80;59.40
37910;DHT22;23741;49.446;8.754;2022-09-09T11:23:11;23.90;59.10
37910;DHT22;23741;49.446;8.754;2022-09-09T11:35:55;24.10;58.10
37910;DHT22;23741;49.446;8.754;2022-09-09T11:40:28;24.20;58.20
37910;DHT22;23741;49.446;8.754;2022-09-09T11:42:31;24.30;58.10
37910;DHT22;23741;49.446;8.754;2022-09-09T11:44:33;24.40;58.50
37910;DHT22;23741;49.446;8.754;2022-09-09T11:46:36;24.40;57.80
37910;DHT22;23741;49.446;8.754;2022-09-09T11:50:44;24.60;58.20
37910;DHT22;23741;49.446;8.754;2022-09-09T11:52:47;24.70;57.80
37910;DHT22;23741;49.446;8.754;2022-09-09T11:54:49;24.80;57.90
37910;DHT22;23741;49.446;8.754;2022-09-09T11:56:51;24.90;58.20
37910;DHT22;23741;49.446;8.754;2022-09-09T11:58:55;25.00;58.10
37910;DHT22;23741;49.446;8.754;2022-09-09T12:00:57;25.10;58.00
37910;DHT22;23741;49.446;8.754;2022-09-09T12:02:58;25.20;57.40
37910;DHT22;23741;49.446;8.754;2022-09-09T12:05:10;25.30;57.10
37910;DHT22;23741;49.446;8.754;2022-09-09T12:09:29;25.50;57.10
37910;DHT22;23741;49.446;8.754;2022-09-09T12:11:33;25.60;56.90
37910;DHT22;23741;49.446;8.754;2022-09-09T12:13:34;25.60;56.50
37910;DHT22;23741;49.446;8.754;2022-09-09T12:15:46;25.70;56.20
37910;DHT22;23741;49.446;8.754;2022-09-09T12:17:49;25.70;56.50
37910;DHT22;23741;49.446;8.754;2022-09-09T12:20:01;25.80;56.60
37910;DHT22;23741;49.446;8.754;2022-09-09T12:24:32;25.80;55.10
37910;DHT22;23741;49.446;8.754;2022-09-09T12:28:41;25.90;56.10
37910;DHT22;23741;49.446;8.754;2022-09-09T12:33:06;25.90;55.60
37910;DHT22;23741;49.446;8.754;2022-09-09T12:35:15;25.90;56.00
37910;DHT22;23741;49.446;8.754;2022-09-09T12:39:24;26.00;55.90
37910;DHT22;23741;49.446;8.754;2022-09-09T12:41:29;26.10;55.50
37910;DHT22;23741;49.446;8.754;2022-09-09T12:43:31;26.10;55.60
37910;DHT22;23741;49.446;8.754;2022-09-09T12:45:33;26.20;56.10
37910;DHT22;23741;49.446;8.754;2022-09-09T12:49:39;26.30;55.80
37910;DHT22;23741;49.446;8.754;2022-09-09T12:51:42;26.40;56.00
37910;DHT22;23741;49.446;8.754;2022-09-09T12:53:44;26.50;55.80
37910;DHT22;23741;49.446;8.754;2022-09-09T12:55:51;26.60;55.60
37910;DHT22;23741;49.446;8.754;2022-09-09T12:57:53;26.60;55.60
37910;DHT22;23741;49.446;8.754;2022-09-09T13:00:03;26.70;54.90
37910;DHT22;23741;49.446;8.754;2022-09-09T13:02:11;26.70;54.60
37910;DHT22;23741;49.446;8.754;2022-09-09T13:04:19;26.80;54.50
37910;DHT22;23741;49.446;8.754;2022-09-09T13:06:25;26.80;54.00
37910;DHT22;23741;49.446;8.754;2022-09-09T13:08:30;26.80;54.10
37910;DHT22;23741;49.446;8.754;2022-09-09T13:10:50;26.80;54.20
37910;DHT22;23741;49.446;8.754;2022-09-09T13:13:01;26.80;53.90
37910;DHT22;23741;49.446;8.754;2022-09-09T13:15:03;26.80;53.50
37910;DHT22;23741;49.446;8.754;2022-09-09T13:17:05;26.80;54.30
37910;DHT22;23741;49.446;8.754;2022-09-09T13:19:08;26.70;53.90
37910;DHT22;23741;49.446;8.754;2022-09-09T13:21:11;26.70;54.00
37910;DHT22;23741;49.446;8.754;2022-09-09T13:23:13;26.60;53.10
37910;DHT22;23741;49.446;8.754;2022-09-09T13:29:32;26.50;52.70
37910;DHT22;23741;49.446;8.754;2022-09-09T13:31:35;26.40;53.40
37910;DHT22;23741;49.446;8.754;2022-09-09T13:33:38;26.30;53.00
37910;DHT22;23741;49.446;8.754;2022-09-09T13:35:47;26.20;52.80
37910;DHT22;23741;49.446;8.754;2022-09-09T13:37:49;26.10;52.40
37910;DHT22;23741;49.446;8.754;2022-09-09T13:39:51;26.00;52.90
37910;DHT22;23741;49.446;8.754;2022-09-09T13:41:54;25.90;52.10
37910;DHT22;23741;49.446;8.754;2022-09-09T13:43:56;25.70;52.60
37910;DHT22;23741;49.446;8.754;2022-09-09T13:45:59;25.70;52.70
37910;DHT22;23741;49.446;8.754;2022-09-09T13:48:08;25.50;52.40
37910;DHT22;23741;49.446;8.754;2022-09-09T13:50:17;25.40;52.40
37910;DHT22;23741;49.446;8.754;2022-09-09T13:52:20;25.30;51.90
37910;DHT22;23741;49.446;8.754;2022-09-09T13:54:23;25.20;51.40
37910;DHT22;23741;49.446;8.754;2022-09-09T13:56:25;25.00;51.90
37910;DHT22;23741;49.446;8.754;2022-09-09T13:58:27;24.90;52.50
37910;DHT22;23741;49.446;8.754;2022-09-09T14:00:29;24.80;52.40
37910;DHT22;23741;49.446;8.754;2022-09-09T14:02:34;24.60;52.80
37910;DHT22;23741;49.446;8.754;2022-09-09T14:04:36;24.50;53.10
37910;DHT22;23741;49.446;8.754;2022-09-09T14:06:38;24.40;53.40
37910;DHT22;23741;49.446;8.754;2022-09-09T14:08:40;24.30;53.80
37910;DHT22;23741;49.446;8.754;2022-09-09T14:10:42;24.30;54.20
37910;DHT22;23741;49.446;8.754;2022-09-09T14:12:44;24.20;54.60
37910;DHT22;23741;49.446;8.754;2022-09-09T14:14:46;24.20;54.90
37910;DHT22;23741;49.446;8.754;2022-09-09T14:16:47;24.10;55.20
37910;DHT22;23741;49.446;8.754;2022-09-09T14:18:49;24.10;55.40
37910;DHT22;23741;49.446;8.754;2022-09-09T14:20:51;24.10;55.70
37910;DHT22;23741;49.446;8.754;2022-09-09T14:22:53;24.10;55.80
37910;DHT22;23741;49.446;8.754;2022-09-09T14:24:55;24.10;55.90
37910;DHT22;23741;49.446;8.754;2022-09-09T14:26:56;24.10;56.20
37910;DHT22;23741;49.446;8.754;2022-09-09T14:28:58;24.20;56.20
37910;DHT22;23741;49.446;8.754;2022-09-09T14:31:03;24.20;56.20
37910;DHT22;23741;49.446;8.754;2022-09-09T14:33:05;24.20;56.30
37910;DHT22;23741;49.446;8.754;2022-09-09T14:35:07;24.30;56.60
37910;DHT22;23741;49.446;8.754;2022-09-09T14:37:08;24.40;56.70
37910;DHT22;23741;49.446;8.754;2022-09-09T14:39:10;24.50;56.90
37910;DHT22;23741;49.446;8.754;2022-09-09T14:41:14;24.60;56.90
37910;DHT22;23741;49.446;8.754;2022-09-09T14:43:19;24.70;57.00
37910;DHT22;23741;49.446;8.754;2022-09-09T14:45:22;24.80;57.10
37910;DHT22;23741;49.446;8.754;2022-09-09T14:47:26;24.90;57.10
37910;DHT22;23741;49.446;8.754;2022-09-09T14:49:27;25.00;56.70